Time;durP1;ratioP1;P1;durP2;ratioP2;P2;SDS_P1;SDS_P2;PMS_P1;PMS_P2;Temp;Humidity;BMP_temperature;BMP_pressure;BME280_temperature;BME280_humidity;BME280_pressure;Samples;Min_cycle;Max_cycle;Signal;HPM_P1;HPM_P2
2023/12/08 00:00:56;;;;;;;;;;;;;;;-12.14;72.50;101951.31;5021994;28;19933;-73
2023/12/08 00:03:22;;;;;;;;;;;;;;;-12.09;72.56;101944.97;5022220;28;19935;-73
2023/12/08 00:05:48;;;;;;;;;;;;;;;-12.05;72.77;101943.88;5009562;28;19934;-73
2023/12/08 00:08:14;;;;;;;;;;;;;;;-12.02;72.60;101944.59;4983468;28;19953;-73
2023/12/08 00:10:41;;;;;;;;;;;;;;;-12.04;72.24;101950.84;5018309;28;20049;-73
2023/12/08 00:13:07;;;;;;;;;;;;;;;-12.03;72.52;101944.66;5019372;28;19983;-73
2023/12/08 00:15:33;;;;;;;;;;;;;;;-12.00;72.65;101942.69;5019240;28;19933;-73
2023/12/08 00:17:59;;;;;;;;;;;;;;;-11.97;72.56;101942.53;5020636;28;20361;-73
2023/12/08 00:20:25;;;;;;;;;;;;;;;-11.92;72.71;101942.31;5023639;28;20043;-70
2023/12/08 00:22:52;;;;;;;;;;;;;;;-11.89;72.12;101944.78;5021750;28;19936;-70
2023/12/08 00:25:17;;;;;;;;;;;;;;;-11.83;72.15;101943.63;5023757;28;20035;-70
2023/12/08 00:27:45;;;;;;;;;;;;;;;-11.87;72.29;101942.09;5024317;28;20397;-71
2023/12/08 00:30:12;;;;;;;;;;;;;;;-11.84;72.28;101940.16;5008605;28;19929;-70
2023/12/08 00:32:38;;;;;;;;;;;;;;;-11.78;72.62;101943.41;5027886;28;19929;-70
2023/12/08 00:35:04;;;;;;;;;;;;;;;-11.71;72.34;101942.16;5023414;28;20384;-70
2023/12/08 00:37:30;;;;;;;;;;;;;;;-11.69;72.08;101942.97;5024801;28;20311;-69
2023/12/08 00:39:56;;;;;;;;;;;;;;;-11.73;71.63;101947.53;5024591;28;20289;-70
2023/12/08 00:42:22;;;;;;;;;;;;;;;-11.74;72.04;101942.31;5025912;28;19929;-70
2023/12/08 00:44:49;;;;;;;;;;;;;;;-11.77;72.58;101937.22;5006430;28;19959;-70
2023/12/08 00:47:15;;;;;;;;;;;;;;;-11.79;72.30;101936.44;5023840;28;20397;-70
2023/12/08 00:49:41;;;;;;;;;;;;;;;-11.71;72.41;101942.16;5025810;28;20010;-71
2023/12/08 00:52:07;;;;;;;;;;;;;;;-11.67;72.47;101938.47;5025428;28;19929;-71
2023/12/08 00:54:33;;;;;;;;;;;;;;;-11.66;72.39;101932.25;5024364;28;19976;-70
2023/12/08 00:56:58;;;;;;;;;;;;;;;-11.72;72.45;101935.19;5006807;28;20434;-70
2023/12/08 00:59:24;;;;;;;;;;;;;;;-11.73;72.71;101930.84;5022868;28;20028;-70
2023/12/08 01:01:52;;;;;;;;;;;;;;;-11.74;72.54;101934.41;5023023;28;19929;-70
2023/12/08 01:04:18;;;;;;;;;;;;;;;-11.78;72.63;101933.72;5035774;28;20019;-70
2023/12/08 01:06:44;;;;;;;;;;;;;;;-11.80;72.51;101929.44;5004921;28;20048;-70
2023/12/08 01:09:09;;;;;;;;;;;;;;;-11.77;72.88;101931.94;5024723;28;19935;-70
2023/12/08 01:11:35;;;;;;;;;;;;;;;-11.76;73.09;101928.34;5024519;28;19959;-70
2023/12/08 01:14:01;;;;;;;;;;;;;;;-11.76;72.56;101936.28;5022505;28;19929;-70
2023/12/08 01:16:27;;;;;;;;;;;;;;;-11.82;72.93;101932.16;5005412;28;20031;-70
2023/12/08 01:18:54;;;;;;;;;;;;;;;-11.85;73.02;101927.03;5004767;28;19936;-71
2023/12/08 01:21:20;;;;;;;;;;;;;;;-11.86;73.03;101918.28;5039080;28;20554;-71
2023/12/08 01:23:46;;;;;;;;;;;;;;;-11.89;73.47;101917.56;5019235;28;20036;-70
2023/12/08 01:26:12;;;;;;;;;;;;;;;-11.90;73.22;101910.59;5021347;28;19971;-71
2023/12/08 01:28:38;;;;;;;;;;;;;;;-11.90;73.43;101921.13;5022118;28;19968;-69
2023/12/08 01:31:04;;;;;;;;;;;;;;;-11.82;73.82;101925.09;5003144;28;19929;-70
2023/12/08 01:33:30;;;;;;;;;;;;;;;-11.73;73.56;101913.22;5005762;28;19929;-70
2023/12/08 01:35:57;;;;;;;;;;;;;;;-11.71;73.41;101915.75;5021795;28;19980;-70
2023/12/08 01:38:23;;;;;;;;;;;;;;;-11.65;73.53;101910.19;5022772;28;19972;-70
2023/12/08 01:40:49;;;;;;;;;;;;;;;-11.57;73.22;101913.28;5016016;28;19960;-70
2023/12/08 01:43:15;;;;;;;;;;;;;;;-11.60;72.87;101909.97;5028327;28;20040;-70
2023/12/08 01:45:41;;;;;;;;;;;;;;;-11.65;72.71;101914.59;5021672;28;20297;-70
2023/12/08 01:48:07;;;;;;;;;;;;;;;-11.71;73.36;101915.75;5021108;28;19933;-70
2023/12/08 01:50:34;;;;;;;;;;;;;;;-11.70;73.55;101914.88;5021414;28;19929;-70
2023/12/08 01:53:03;;;;;;;;;;;;;;;-11.68;73.66;101915.63;5005617;28;20564;-70
2023/12/08 01:55:30;;;;;;;;;;;;;;;-11.64;73.51;101916.31;5021431;28;19937;-70
2023/12/08 01:57:56;;;;;;;;;;;;;;;-11.61;73.32;101922.31;4988760;28;19929;-70
2023/12/08 02:00:21;;;;;;;;;;;;;;;-11.64;72.92;101914.53;5023321;28;19929;-70
2023/12/08 02:02:48;;;;;;;;;;;;;;;-11.73;73.25;101918.50;5021043;28;20312;-70
2023/12/08 02:05:16;;;;;;;;;;;;;;;-11.85;73.63;101901.50;5022111;28;20016;-70
2023/12/08 02:07:42;;;;;;;;;;;;;;;-11.72;73.92;101911.41;5021956;28;20359;-70
2023/12/08 02:10:09;;;;;;;;;;;;;;;-11.74;73.47;101908.88;5036334;28;20427;-70
2023/12/08 02:12:35;;;;;;;;;;;;;;;-11.79;73.56;101904.75;5022997;28;19929;-70
2023/12/08 02:15:02;;;;;;;;;;;;;;;-11.84;73.77;101904.97;4950620;28;1979161;-70
2023/12/08 02:17:31;;;;;;;;;;;;;;;-11.84;74.22;101900.56;5021671;28;19951;-70
2023/12/08 02:19:57;;;;;;;;;;;;;;;-11.79;74.50;101895.03;5016787;28;19934;-71
2023/12/08 02:22:25;;;;;;;;;;;;;;;-11.78;74.23;101901.19;5021988;28;19951;-70
2023/12/08 02:24:53;;;;;;;;;;;;;;;-11.73;74.42;101897.38;5022532;28;19940;-70
2023/12/08 02:27:19;;;;;;;;;;;;;;;-11.74;74.59;101894.81;5006193;28;20420;-70
2023/12/08 02:29:45;;;;;;;;;;;;;;;-11.66;74.52;101900.56;4988907;28;19929;-70
2023/12/08 02:32:14;;;;;;;;;;;;;;;-11.56;74.39;101903.59;5022448;28;20023;-70
2023/12/08 02:34:41;;;;;;;;;;;;;;;-11.50;74.00;101900.63;5007217;28;19960;-73
2023/12/08 02:37:08;;;;;;;;;;;;;;;-11.45;73.64;101905.66;5022391;28;19929;-73
2023/12/08 02:39:35;;;;;;;;;;;;;;;-11.45;73.65;101913.59;5023841;28;19929;-73
2023/12/08 02:42:03;;;;;;;;;;;;;;;-11.53;73.41;101911.34;5017875;28;20016;-73
2023/12/08 02:44:29;;;;;;;;;;;;;;;-11.55;73.36;101915.84;5002702;28;20039;-73
2023/12/08 02:46:54;;;;;;;;;;;;;;;-11.52;73.47;101913.06;5006474;28;20035;-73
2023/12/08 02:49:20;;;;;;;;;;;;;;;-11.56;73.33;101912.34;4989091;28;19933;-73
2023/12/08 02:51:46;;;;;;;;;;;;;;;-11.61;73.51;101910.91;5022962;28;19983;-74
2023/12/08 02:54:12;;;;;;;;;;;;;;;-11.64;73.40;101903.13;5022869;28;19929;-73
2023/12/08 02:56:38;;;;;;;;;;;;;;;-11.68;73.71;101913.00;5023624;28;19929;-74
2023/12/08 02:59:05;;;;;;;;;;;;;;;-11.62;73.49;101907.41;5022681;28;19968;-73
2023/12/08 03:01:31;;;;;;;;;;;;;;;-11.64;73.37;101901.34;5023105;28;19929;-74
2023/12/08 03:03:57;;;;;;;;;;;;;;;-11.63;73.51;101900.41;5022692;28;19940;-73
2023/12/08 03:06:23;;;;;;;;;;;;;;;-11.63;72.81;101903.03;5023839;28;20084;-74
2023/12/08 03:08:48;;;;;;;;;;;;;;;-11.64;73.16;101901.34;5024692;28;19928;-73
2023/12/08 03:11:14;;;;;;;;;;;;;;;-11.71;72.75;101906.06;5022298;28;20475;-73
2023/12/08 03:13:40;;;;;;;;;;;;;;;-11.75;72.65;101908.94;5000820;28;19933;-73
2023/12/08 03:16:08;;;;;;;;;;;;;;;-11.85;72.89;101916.47;5021097;28;19961;-73
2023/12/08 03:18:34;;;;;;;;;;;;;;;-11.88;72.74;101906.91;5022880;28;20487;-73
2023/12/08 03:21:00;;;;;;;;;;;;;;;-11.90;72.72;101911.41;5023393;28;20028;-73
2023/12/08 03:23:26;;;;;;;;;;;;;;;-11.89;73.08;101909.66;5020258;28;19957;-73
2023/12/08 03:25:52;;;;;;;;;;;;;;;-11.92;73.32;101904.53;5021586;28;19936;-73
2023/12/08 03:28:17;;;;;;;;;;;;;;;-11.90;73.20;101903.50;5022580;28;19990;-73
2023/12/08 03:30:43;;;;;;;;;;;;;;;-11.93;72.97;101908.09;5022739;28;19936;-73
2023/12/08 03:33:11;;;;;;;;;;;;;;;-11.98;72.96;101908.31;5003995;28;19936;-73
2023/12/08 03:35:36;;;;;;;;;;;;;;;-12.02;72.90;101915.56;5022513;28;20291;-73
2023/12/08 03:38:02;;;;;;;;;;;;;;;-11.92;73.20;101913.28;5022895;28;19929;-73
2023/12/08 03:40:28;;;;;;;;;;;;;;;-11.88;73.11;101912.19;5021757;28;19971;-74
2023/12/08 03:42:54;;;;;;;;;;;;;;;-11.88;73.10;101906.06;5021302;28;19975;-73
2023/12/08 03:45:20;;;;;;;;;;;;;;;-11.86;72.62;101910.34;5020366;28;20031;-74
2023/12/08 03:47:46;;;;;;;;;;;;;;;-11.79;72.88;101913.50;5037361;28;20465;-74
2023/12/08 03:50:14;;;;;;;;;;;;;;;-11.83;72.57;101909.31;5022304;28;19933;-75
2023/12/08 03:52:39;;;;;;;;;;;;;;;-11.83;72.41;101907.56;5000766;28;19929;-75
2023/12/08 03:55:05;;;;;;;;;;;;;;;-11.79;72.45;101905.59;5020655;28;19929;-74
2023/12/08 03:57:31;;;;;;;;;;;;;;;-11.83;72.32;101904.91;5008762;28;19939;-74
2023/12/08 03:59:57;;;;;;;;;;;;;;;-11.85;72.64;101909.44;5001188;28;20027;-74
2023/12/08 04:02:23;;;;;;;;;;;;;;;-11.82;72.82;101906.63;5011007;28;20019;-74
2023/12/08 04:04:49;;;;;;;;;;;;;;;-11.78;72.81;101920.53;5001866;28;20436;-75
2023/12/08 04:07:17;;;;;;;;;;;;;;;-11.75;72.44;101923.00;5017683;28;20039;-74
2023/12/08 04:09:43;;;;;;;;;;;;;;;-11.75;72.50;101914.22;5004080;28;19936;-73
2023/12/08 04:12:09;;;;;;;;;;;;;;;-11.76;72.85;101920.44;5019146;28;19959;-75
2023/12/08 04:14:35;;;;;;;;;;;;;;;-11.78;72.89;101922.31;5021617;28;19929;-74
2023/12/08 04:17:01;;;;;;;;;;;;;;;-11.83;72.29;101920.75;5020681;28;19935;-71
2023/12/08 04:19:27;;;;;;;;;;;;;;;-11.84;72.79;101921.69;5021075;28;20297;-70
2023/12/08 04:21:53;;;;;;;;;;;;;;;-11.84;72.56;101926.97;5004264;28;19930;-71
2023/12/08 04:24:21;;;;;;;;;;;;;;;-11.76;72.38;101925.72;5001476;28;20373;-71
2023/12/08 04:26:47;;;;;;;;;;;;;;;-11.70;72.39;101925.44;4986877;28;19991;-71
2023/12/08 04:29:13;;;;;;;;;;;;;;;-11.73;72.26;101931.69;5002010;28;19964;-70
2023/12/08 04:31:39;;;;;;;;;;;;;;;-11.74;72.08;101931.78;5026839;28;19929;-70
2023/12/08 04:34:05;;;;;;;;;;;;;;;-11.75;72.31;101930.06;5008128;28;19937;-70
2023/12/08 04:36:31;;;;;;;;;;;;;;;-11.77;72.02;101939.84;5012477;28;20344;-71
2023/12/08 04:38:57;;;;;;;;;;;;;;;-11.76;72.25;101928.34;5010078;28;20024;-74
2023/12/08 04:41:25;;;;;;;;;;;;;;;-11.75;72.42;101933.56;5012634;28;19929;-73
2023/12/08 04:43:51;;;;;;;;;;;;;;;-11.77;72.27;101938.06;4998013;28;19929;-73
2023/12/08 04:46:18;;;;;;;;;;;;;;;-11.77;71.99;101929.28;5007725;28;20534;-73
2023/12/08 04:48:43;;;;;;;;;;;;;;;-11.82;71.66;101926.88;5010661;28;19949;-74
2023/12/08 04:51:10;;;;;;;;;;;;;;;-11.88;71.70;101927.19;5014942;28;19929;-74
2023/12/08 04:53:35;;;;;;;;;;;;;;;-11.93;72.17;101923.94;5015727;28;20325;-74
2023/12/08 04:56:01;;;;;;;;;;;;;;;-11.94;72.10;101925.69;5022506;28;19929;-72
2023/12/08 04:58:29;;;;;;;;;;;;;;;-11.92;71.94;101928.28;5018346;28;19929;-72
2023/12/08 05:00:55;;;;;;;;;;;;;;;-11.93;72.15;101924.78;5007406;28;20609;-73
2023/12/08 05:03:22;;;;;;;;;;;;;;;-11.93;72.19;101926.56;5011302;28;19929;-72
2023/12/08 05:05:49;;;;;;;;;;;;;;;-11.89;72.43;101931.59;5010957;28;19929;-73
2023/12/08 05:08:15;;;;;;;;;;;;;;;-11.91;72.23;101928.19;4995905;28;19987;-73
2023/12/08 05:10:47;;;;;;;;;;;;;;;-11.91;72.39;101928.19;5016113;28;20386;-74
2023/12/08 05:13:13;;;;;;;;;;;;;;;-11.89;72.80;101923.69;5013150;28;19934;-73
2023/12/08 05:15:41;;;;;;;;;;;;;;;-11.87;72.81;101928.91;5017119;28;19929;-70
2023/12/08 05:18:07;;;;;;;;;;;;;;;-11.83;72.93;101926.03;5003639;28;19934;-70
2023/12/08 05:20:33;;;;;;;;;;;;;;;-11.77;72.77;101939.84;5012847;28;19929;-70
2023/12/08 05:22:59;;;;;;;;;;;;;;;-11.71;72.45;101936.88;5022543;28;19929;-70
2023/12/08 05:25:25;;;;;;;;;;;;;;;-11.75;72.37;101937.97;5023295;28;19933;-70
2023/12/08 05:27:51;;;;;;;;;;;;;;;-11.77;72.35;101942.50;5024457;28;19936;-73
2023/12/08 05:30:17;;;;;;;;;;;;;;;-11.78;72.60;101940.78;5021365;28;19929;-73
2023/12/08 05:32:45;;;;;;;;;;;;;;;-11.74;72.40;101943.19;5021789;28;19929;-73
2023/12/08 05:35:11;;;;;;;;;;;;;;;-11.90;72.45;101921.97;5019682;28;20651;-73
2023/12/08 05:37:37;;;;;;;;;;;;;;;-11.81;72.81;101944.41;5021186;28;19932;-74
2023/12/08 05:40:04;;;;;;;;;;;;;;;-11.78;72.71;101943.41;5021777;28;19936;-73
2023/12/08 05:42:30;;;;;;;;;;;;;;;-11.83;72.38;101944.50;5022673;28;19929;-73
2023/12/08 05:44:56;;;;;;;;;;;;;;;-11.82;72.49;101948.84;5017780;28;19936;-72
2023/12/08 05:47:22;;;;;;;;;;;;;;;-11.83;72.39;101941.00;5023186;28;20239;-72
2023/12/08 05:49:50;;;;;;;;;;;;;;;-11.77;72.53;101940.72;5025534;28;19976;-70
2023/12/08 05:52:16;;;;;;;;;;;;;;;-11.73;72.20;101936.97;5024119;28;19935;-69
2023/12/08 05:54:42;;;;;;;;;;;;;;;-11.76;71.99;101944.19;5005667;28;20404;-70
2023/12/08 05:57:08;;;;;;;;;;;;;;;-11.76;72.58;101939.78;5002628;28;20314;-73
2023/12/08 05:59:34;;;;;;;;;;;;;;;-11.75;72.00;101941.50;5021806;28;19929;-72
2023/12/08 06:02:00;;;;;;;;;;;;;;;-11.83;72.13;101935.72;5024101;28;19971;-73
2023/12/08 06:04:26;;;;;;;;;;;;;;;-11.82;72.60;101935.66;5030697;28;19929;-73
2023/12/08 06:06:53;;;;;;;;;;;;;;;-11.78;72.50;101940.78;5009846;28;19929;-70
2023/12/08 06:09:19;;;;;;;;;;;;;;;-11.85;72.63;101927.03;5015286;28;19953;-70
2023/12/08 06:11:45;;;;;;;;;;;;;;;-11.73;71.84;101938.75;5014416;28;20022;-70
2023/12/08 06:14:11;;;;;;;;;;;;;;;-11.72;71.62;101943.09;5022369;28;20400;-70
2023/12/08 06:16:38;;;;;;;;;;;;;;;-11.72;71.40;101933.41;5002897;28;19929;-70
2023/12/08 06:19:04;;;;;;;;;;;;;;;-11.78;71.58;101939.00;5018902;28;20379;-70
2023/12/08 06:21:30;;;;;;;;;;;;;;;-11.80;71.68;101938.19;5022264;28;20459;-70
2023/12/08 06:23:57;;;;;;;;;;;;;;;-11.82;71.45;101934.78;5015860;28;19960;-70
2023/12/08 06:26:24;;;;;;;;;;;;;;;-11.85;71.56;101929.66;5013966;28;19936;-70
2023/12/08 06:28:49;;;;;;;;;;;;;;;-11.89;71.46;101928.13;5025895;28;19929;-69
2023/12/08 06:31:16;;;;;;;;;;;;;;;-11.86;71.99;101917.41;5007039;28;19933;-70
2023/12/08 06:33:41;;;;;;;;;;;;;;;-11.82;71.65;101922.47;5023475;28;19972;-70
2023/12/08 06:36:08;;;;;;;;;;;;;;;-11.75;71.67;101917.72;5025179;28;20023;-70
2023/12/08 06:38:36;;;;;;;;;;;;;;;-11.75;71.65;101912.44;5023995;28;20040;-70
2023/12/08 06:41:04;;;;;;;;;;;;;;;-11.75;71.28;101927.41;5024158;28;19944;-70
2023/12/08 06:43:30;;;;;;;;;;;;;;;-11.82;71.59;101914.53;5026856;28;19929;-70
2023/12/08 06:45:56;;;;;;;;;;;;;;;-11.82;71.55;101919.81;5024948;28;19940;-70
2023/12/08 06:48:23;;;;;;;;;;;;;;;-11.80;71.64;101914.44;4991026;28;19975;-70
2023/12/08 06:50:50;;;;;;;;;;;;;;;-11.76;71.74;101912.50;5038688;28;19952;-70
2023/12/08 06:53:16;;;;;;;;;;;;;;;-11.76;71.19;101920.44;5024588;28;20024;-70
2023/12/08 06:55:42;;;;;;;;;;;;;;;-11.72;71.40;101917.56;5023942;28;19929;-70
2023/12/08 06:58:09;;;;;;;;;;;;;;;-11.75;71.11;101917.72;5023650;28;20149;-69
2023/12/08 07:00:36;;;;;;;;;;;;;;;-11.72;71.36;101912.28;5020980;28;19929;-70
2023/12/08 07:03:02;;;;;;;;;;;;;;;-11.78;71.10;101909.09;5023430;28;19929;-70
2023/12/08 07:05:28;;;;;;;;;;;;;;;-11.69;70.72;101927.13;5006547;28;19933;-69
2023/12/08 07:07:56;;;;;;;;;;;;;;;-11.63;70.74;101931.22;5023969;28;19982;-71
2023/12/08 07:10:22;;;;;;;;;;;;;;;-11.57;70.68;101937.06;5025323;28;20460;-70
2023/12/08 07:12:48;;;;;;;;;;;;;;;-11.52;70.69;101936.81;5006173;28;19979;-70
2023/12/08 07:15:15;;;;;;;;;;;;;;;-11.51;70.31;101921.84;5005219;28;19929;-70
2023/12/08 07:17:41;;;;;;;;;;;;;;;-11.60;69.93;101924.00;5025428;28;19929;-70
2023/12/08 07:20:09;;;;;;;;;;;;;;;-11.66;70.55;101929.59;5025636;28;19955;-70
2023/12/08 07:22:35;;;;;;;;;;;;;;;-11.72;70.00;101927.25;5006774;28;20400;-70
2023/12/08 07:25:01;;;;;;;;;;;;;;;-11.77;70.25;101927.53;5026187;28;20037;-70
2023/12/08 07:27:27;;;;;;;;;;;;;;;-11.80;70.50;101921.53;5022815;28;19951;-70
2023/12/08 07:29:53;;;;;;;;;;;;;;;-11.86;70.31;101918.28;5024969;28;19929;-71
2023/12/08 07:32:21;;;;;;;;;;;;;;;-11.95;69.92;101924.00;5023857;28;20427;-70
2023/12/08 07:34:47;;;;;;;;;;;;;;;-11.90;70.22;101926.41;4989234;28;19944;-70
2023/12/08 07:37:13;;;;;;;;;;;;;;;-11.99;70.16;101927.72;5022941;28;19933;-70
2023/12/08 07:39:39;;;;;;;;;;;;;;;-12.04;70.57;101925.34;5024658;28;19999;-70
2023/12/08 07:42:06;;;;;;;;;;;;;;;-12.03;70.47;101924.41;5005358;28;19929;-70
2023/12/08 07:44:34;;;;;;;;;;;;;;;-12.06;70.03;101923.69;5040973;28;19987;-70
2023/12/08 07:47:00;;;;;;;;;;;;;;;-12.03;70.25;101929.69;4991055;28;19929;-70
2023/12/08 07:49:28;;;;;;;;;;;;;;;-11.99;70.61;101925.94;5021259;28;19987;-70
2023/12/08 07:51:53;;;;;;;;;;;;;;;-12.02;70.04;101919.97;5025325;28;19929;-70
2023/12/08 07:54:19;;;;;;;;;;;;;;;-12.05;69.98;101914.84;5024218;28;19986;-69
2023/12/08 07:56:45;;;;;;;;;;;;;;;-11.99;70.35;101919.81;5023901;28;20430;-70
2023/12/08 07:59:11;;;;;;;;;;;;;;;-11.89;70.21;101915.75;5004229;28;19964;-70
2023/12/08 08:01:37;;;;;;;;;;;;;;;-11.83;69.76;101912.84;5007277;28;19987;-72
2023/12/08 08:04:03;;;;;;;;;;;;;;;-11.76;69.46;101916.03;5023860;28;19929;-73
2023/12/08 08:06:34;;;;;;;;;;;;;;;-11.76;69.08;101915.16;5023962;28;19983;-72
2023/12/08 08:09:00;;;;;;;;;;;;;;;-11.78;69.33;101923.16;5020288;28;19929;-70
2023/12/08 08:11:26;;;;;;;;;;;;;;;-11.67;69.31;101922.63;5006205;28;19929;-70
2023/12/08 08:13:51;;;;;;;;;;;;;;;-11.51;69.13;101927.13;5023102;28;19929;-70
2023/12/08 08:16:18;;;;;;;;;;;;;;;-11.40;68.36;101925.63;5024858;28;20451;-70
2023/12/08 08:18:43;;;;;;;;;;;;;;;-11.42;68.14;101905.50;5022355;28;20467;-70
2023/12/08 08:21:10;;;;;;;;;;;;;;;-11.21;68.42;101906.19;5023905;28;20036;-70
2023/12/08 08:23:37;;;;;;;;;;;;;;;-11.05;67.53;101905.38;5024624;28;19929;-70
2023/12/08 08:26:03;;;;;;;;;;;;;;;-10.99;66.98;101911.19;5023149;28;19933;-70
2023/12/08 08:28:29;;;;;;;;;;;;;;;-11.01;66.75;101904.25;5022221;28;19929;-70
2023/12/08 08:30:55;;;;;;;;;;;;;;;-11.15;67.10;101910.28;5024150;28;20301;-70
2023/12/08 08:33:22;;;;;;;;;;;;;;;-11.06;67.14;101906.31;5022128;28;19936;-70
2023/12/08 08:35:48;;;;;;;;;;;;;;;-11.10;66.83;101905.59;5020101;28;19929;-70
2023/12/08 08:38:14;;;;;;;;;;;;;;;-11.18;66.60;101898.09;5018968;28;19969;-70
2023/12/08 08:40:41;;;;;;;;;;;;;;;-11.30;66.71;101904.03;5026008;28;20055;-70
2023/12/08 08:43:07;;;;;;;;;;;;;;;-11.33;67.08;101905.03;5027280;28;20023;-70
2023/12/08 08:45:33;;;;;;;;;;;;;;;-11.30;66.73;101894.31;5026814;28;20024;-70
2023/12/08 08:47:59;;;;;;;;;;;;;;;-11.30;66.94;101893.47;5025135;28;20030;-70
2023/12/08 08:50:25;;;;;;;;;;;;;;;-11.30;67.30;101893.47;5027510;28;20381;-69
2023/12/08 08:52:51;;;;;;;;;;;;;;;-11.32;67.13;101898.81;5028207;28;19978;-70
2023/12/08 08:55:17;;;;;;;;;;;;;;;-11.31;67.31;101889.13;5026160;28;20625;-70
2023/12/08 08:57:47;;;;;;;;;;;;;;;-11.31;67.06;101889.97;5024425;28;19975;-70
2023/12/08 09:00:14;;;;;;;;;;;;;;;-11.31;67.19;101894.41;5026570;28;19991;-70
2023/12/08 09:02:40;;;;;;;;;;;;;;;-11.34;66.79;101889.25;5024272;28;19936;-70
2023/12/08 09:05:07;;;;;;;;;;;;;;;-11.33;67.15;101894.47;5025613;28;19930;-70
2023/12/08 09:07:33;;;;;;;;;;;;;;;-11.29;66.82;101884.59;5026959;28;19929;-70
2023/12/08 09:09:59;;;;;;;;;;;;;;;-11.28;67.18;101887.16;5007973;28;19959;-70
2023/12/08 09:12:25;;;;;;;;;;;;;;;-11.21;66.87;101890.31;5011311;28;19984;-70
2023/12/08 09:14:52;;;;;;;;;;;;;;;-11.25;66.56;101889.63;5026184;28;20012;-70
2023/12/08 09:17:18;;;;;;;;;;;;;;;-11.27;66.79;101883.56;5026702;28;19936;-70
2023/12/08 09:19:44;;;;;;;;;;;;;;;-11.25;66.80;101878.22;5029290;28;19933;-70
2023/12/08 09:22:10;;;;;;;;;;;;;;;-11.21;67.26;101886.84;5025031;28;19929;-70
2023/12/08 09:24:36;;;;;;;;;;;;;;;-11.22;66.78;101880.69;5027224;28;19929;-70
2023/12/08 09:27:03;;;;;;;;;;;;;;;-11.19;67.06;101888.44;5026250;28;20496;-70
2023/12/08 09:29:28;;;;;;;;;;;;;;;-11.19;66.84;101872.59;5004363;28;19929;-70
2023/12/08 09:31:56;;;;;;;;;;;;;;;-11.38;66.71;101875.38;5025966;28;19955;-70
2023/12/08 09:34:22;;;;;;;;;;;;;;;-11.48;67.44;101871.50;5028670;28;19944;-71
2023/12/08 09:36:48;;;;;;;;;;;;;;;-11.48;67.52;101863.59;5023775;28;19929;-70
2023/12/08 09:39:14;;;;;;;;;;;;;;;-11.45;67.62;101866.94;5025643;28;20388;-70
2023/12/08 09:41:40;;;;;;;;;;;;;;;-11.48;67.68;101866.22;5026327;28;19936;-71
2023/12/08 09:44:10;;;;;;;;;;;;;;;-11.44;67.92;101871.28;5027852;28;19929;-70
2023/12/08 09:46:37;;;;;;;;;;;;;;;-11.44;67.67;101866.00;5024123;28;19929;-69
2023/12/08 09:49:07;;;;;;;;;;;;;;;-11.43;67.63;101856.25;5023756;28;19965;-70
2023/12/08 09:51:34;;;;;;;;;;;;;;;-11.43;66.94;101858.91;5026344;28;19933;-70
2023/12/08 09:54:00;;;;;;;;;;;;;;;-11.50;66.47;101850.44;5026068;28;20203;-72
2023/12/08 09:56:30;;;;;;;;;;;;;;;-11.45;66.50;101848.44;5026522;28;19983;-71
2023/12/08 09:58:56;;;;;;;;;;;;;;;-11.08;66.54;101837.69;5024949;28;19933;-73
2023/12/08 10:01:22;;;;;;;;;;;;;;;-10.74;65.21;101848.19;5025062;28;19975;-72
2023/12/08 10:03:48;;;;;;;;;;;;;;;-10.57;64.51;101841.97;5022584;28;19929;-72
2023/12/08 10:06:16;;;;;;;;;;;;;;;-10.57;63.95;101845.44;5009450;28;19972;-72
2023/12/08 10:08:42;;;;;;;;;;;;;;;-10.65;64.17;101842.38;5023777;28;20218;-72
2023/12/08 10:11:08;;;;;;;;;;;;;;;-10.71;64.41;101854.16;5023775;28;20392;-72
2023/12/08 10:13:35;;;;;;;;;;;;;;;-10.74;64.58;101838.47;5028797;28;19940;-72
2023/12/08 10:16:01;;;;;;;;;;;;;;;-10.80;64.65;101835.31;5024255;28;19983;-72
2023/12/08 10:18:28;;;;;;;;;;;;;;;-10.81;64.93;101836.25;5024305;28;19929;-72
2023/12/08 10:21:09;;;;;;;;;;;;;;;-10.83;64.84;101837.19;5021498;28;20447;-72
2023/12/08 10:23:36;;;;;;;;;;;;;;;-10.92;65.08;101826.28;5026396;28;19933;-73
2023/12/08 10:26:03;;;;;;;;;;;;;;;-11.18;65.02;101795.03;5007563;28;19935;-71
2023/12/08 10:28:32;;;;;;;;;;;;;;;-11.13;64.97;101826.50;5023391;28;20264;-72
2023/12/08 10:30:58;;;;;;;;;;;;;;;-11.30;65.50;101828.25;5023749;28;20016;-72
2023/12/08 10:33:25;;;;;;;;;;;;;;;-11.28;65.80;101826.38;5007253;28;20033;-72
2023/12/08 10:35:51;;;;;;;;;;;;;;;-11.21;65.44;101828.72;5018324;28;20394;-72
2023/12/08 10:38:19;;;;;;;;;;;;;;;-11.17;65.37;101817.88;5023646;28;19933;-72
2023/12/08 10:40:46;;;;;;;;;;;;;;;-11.11;65.23;101820.19;5024918;28;19933;-72
2023/12/08 10:43:19;;;;;;;;;;;;;;;-10.97;64.88;101811.50;5023795;28;19929;-71
2023/12/08 10:45:45;;;;;;;;;;;;;;;-10.92;64.14;101805.97;5026038;28;20388;-72
2023/12/08 10:48:12;;;;;;;;;;;;;;;-10.91;64.12;101809.47;5026289;28;19939;-73
2023/12/08 10:50:38;;;;;;;;;;;;;;;-10.84;64.00;101811.69;5024203;28;19935;-72
2023/12/08 10:53:05;;;;;;;;;;;;;;;-10.74;64.29;101812.03;5022708;28;20016;-72
2023/12/08 10:55:31;;;;;;;;;;;;;;;-10.74;63.79;101814.69;5023258;28;20412;-72
2023/12/08 10:58:00;;;;;;;;;;;;;;;-10.61;63.72;101806.06;5024328;28;19933;-71
2023/12/08 11:00:26;;;;;;;;;;;;;;;-10.63;63.24;101810.56;5022728;28;20320;-71
2023/12/08 11:02:53;;;;;;;;;;;;;;;-10.66;63.17;101798.38;5022013;28;19929;-71
2023/12/08 11:05:32;;;;;;;;;;;;;;;-10.81;63.16;101807.19;5026656;28;19929;-72
2023/12/08 11:07:59;;;;;;;;;;;;;;;-10.96;63.73;101801.81;5025325;28;19929;-73
2023/12/08 11:10:28;;;;;;;;;;;;;;;-11.15;64.03;101797.53;5007878;28;19944;-73
2023/12/08 11:12:59;;;;;;;;;;;;;;;-11.23;64.10;101809.47;5024169;28;19929;-72
2023/12/08 11:15:30;;;;;;;;;;;;;;;-11.27;64.63;101812.25;5021163;28;19936;-72
2023/12/08 11:17:59;;;;;;;;;;;;;;;-11.21;64.52;101819.00;5020541;28;20323;-71
2023/12/08 11:20:25;;;;;;;;;;;;;;;-11.25;64.62;101820.09;4992455;28;19933;-73
2023/12/08 11:22:52;;;;;;;;;;;;;;;-11.27;64.46;101811.41;5022838;28;20415;-71
2023/12/08 11:25:21;;;;;;;;;;;;;;;-11.34;64.80;101804.72;5023166;28;19929;-72
2023/12/08 11:27:50;;;;;;;;;;;;;;;-11.44;64.64;101804.38;5021786;28;19936;-72
2023/12/08 11:30:20;;;;;;;;;;;;;;;-11.55;65.03;101812.88;5021536;28;20301;-72
2023/12/08 11:32:51;;;;;;;;;;;;;;;-11.58;65.74;101802.47;5021884;28;19929;-71
2023/12/08 11:35:17;;;;;;;;;;;;;;;-11.61;65.67;101802.66;5024863;28;20070;-72
2023/12/08 11:37:44;;;;;;;;;;;;;;;-11.56;66.05;101804.09;5004783;28;20297;-72
2023/12/08 11:40:13;;;;;;;;;;;;;;;-11.58;65.67;101805.97;5003251;28;19935;-72
2023/12/08 11:42:39;;;;;;;;;;;;;;;-11.65;65.83;101804.59;5022891;28;20035;-72
2023/12/08 11:45:06;;;;;;;;;;;;;;;-11.71;66.09;101807.53;5026408;28;20571;-72
2023/12/08 11:47:33;;;;;;;;;;;;;;;-11.74;66.21;101802.41;5022714;28;20450;-72
2023/12/08 11:50:01;;;;;;;;;;;;;;;-11.76;66.55;101805.16;5023641;28;19940;-72
2023/12/08 11:52:27;;;;;;;;;;;;;;;-11.81;66.59;101807.16;5021476;28;19929;-72
2023/12/08 11:54:58;;;;;;;;;;;;;;;-11.81;66.55;101807.16;5025308;28;19929;-71
2023/12/08 11:57:24;;;;;;;;;;;;;;;-11.79;66.97;101810.56;5006370;28;20011;-72
2023/12/08 11:59:50;;;;;;;;;;;;;;;-11.91;66.61;101808.59;5024019;28;20380;-72
2023/12/08 12:02:16;;;;;;;;;;;;;;;-12.00;66.72;101813.41;5007185;28;20007;-71
2023/12/08 12:04:42;;;;;;;;;;;;;;;-12.00;67.20;101813.41;5025360;28;19952;-71
2023/12/08 12:07:09;;;;;;;;;;;;;;;-12.00;66.96;101817.84;5020919;28;19929;-74
2023/12/08 12:09:35;;;;;;;;;;;;;;;-12.03;67.13;101810.09;5022966;28;19929;-72
2023/12/08 12:12:04;;;;;;;;;;;;;;;-12.05;67.21;101814.59;5021401;28;20472;-72
2023/12/08 12:14:31;;;;;;;;;;;;;;;-12.04;67.40;101813.66;5023213;28;19979;-73
2023/12/08 12:16:57;;;;;;;;;;;;;;;-12.11;67.26;101819.25;5029169;28;19933;-72
2023/12/08 12:19:23;;;;;;;;;;;;;;;-12.17;67.36;101813.44;5026977;28;19955;-72
2023/12/08 12:21:50;;;;;;;;;;;;;;;-12.23;67.46;101811.13;5026955;28;20680;-72